createdAt,value
2022-10-08T00:01:10.342Z,99967.03
2022-10-08T00:03:40.850Z,99970.53
2022-10-08T00:06:11.985Z,99968.81
2022-10-08T00:08:41.947Z,99977.50
2022-10-08T00:11:12.371Z,99972.19
2022-10-08T00:13:41.462Z,99982.84
2022-10-08T00:16:15.426Z,99977.78
2022-10-08T00:18:44.319Z,99981.69
2022-10-08T00:21:22.877Z,99986.72
2022-10-08T00:23:50.946Z,99985.75
2022-10-08T00:26:20.973Z,99978.84
2022-10-08T00:28:47.944Z,99987.53
2022-10-08T00:31:18.108Z,99992.84
2022-10-08T00:33:44.867Z,99987.84
2022-10-08T00:36:13.086Z,100001.16
2022-10-08T00:38:40.716Z,99998.75
2022-10-08T00:41:15.124Z,99998.31
2022-10-08T00:43:51.720Z,99995.66
2022-10-08T00:46:44.125Z,100000.00
2022-10-08T00:49:13.575Z,100011.25
2022-10-08T00:51:45.799Z,100008.88
2022-10-08T00:54:13.577Z,100012.25
2022-10-08T00:56:41.328Z,100015.00
2022-10-08T00:59:10.659Z,100012.19
2022-10-08T01:01:37.859Z,100011.94
2022-10-08T01:04:07.328Z,100006.69
2022-10-08T01:07:03.481Z,100018.91
2022-10-08T01:09:32.903Z,100029.50
2022-10-08T01:12:08.278Z,100031.78
2022-10-08T01:14:58.212Z,100040.63
2022-10-08T01:17:54.360Z,100038.28
2022-10-08T01:21:05.171Z,100039.09
2022-10-08T01:24:04.191Z,100049.25
2022-10-08T01:26:39.993Z,100044.75
2022-10-08T01:29:18.393Z,100060.59
2022-10-08T01:31:50.736Z,100055.97
2022-10-08T01:34:46.989Z,100064.53
2022-10-08T01:37:36.566Z,100074.75
2022-10-08T01:40:09.493Z,100078.69
2022-10-08T01:42:40.014Z,100083.06
2022-10-08T01:45:15.257Z,100094.84
2022-10-08T01:47:44.354Z,100096.09
2022-10-08T01:50:28.239Z,100102.13
2022-10-08T01:53:02.986Z,100096.38
2022-10-08T01:55:41.605Z,100109.81
2022-10-08T01:58:16.013Z,100103.97
2022-10-08T02:00:43.180Z,100111.38
2022-10-08T02:03:13.447Z,100116.31
2022-10-08T02:05:45.459Z,100123.03
2022-10-08T02:08:12.195Z,100122.06
2022-10-08T02:10:39.124Z,100128.78
2022-10-08T02:13:06.031Z,100121.91
2022-10-08T02:15:55.959Z,100135.22
2022-10-08T02:18:41.958Z,100135.94
2022-10-08T02:21:19.442Z,100139.03
2022-10-08T02:24:26.885Z,100140.41
2022-10-08T02:26:57.350Z,100146.84
2022-10-08T02:29:32.874Z,100140.38
2022-10-08T02:32:18.298Z,100141.78
2022-10-08T02:34:59.952Z,100154.56
2022-10-08T02:37:37.659Z,100160.97
2022-10-08T02:40:10.053Z,100166.44
2022-10-08T02:42:42.532Z,100169.91
2022-10-08T02:45:22.268Z,100167.66
2022-10-08T02:47:53.694Z,100170.63
2022-10-08T02:50:23.389Z,100175.78
2022-10-08T02:52:51.568Z,100171.59
2022-10-08T02:55:29.530Z,100181.25
2022-10-08T02:58:09.788Z,100185.47
2022-10-08T03:00:43.249Z,100183.75
2022-10-08T03:03:15.025Z,100181.25
2022-10-08T03:05:42.862Z,100182.91
2022-10-08T03:08:12.887Z,100187.13
2022-10-08T03:10:41.376Z,100199.97
2022-10-08T03:13:09.599Z,100210.38
2022-10-08T03:15:38.064Z,100200.03
2022-10-08T03:18:09.140Z,100204.50
2022-10-08T03:20:55.885Z,100207.16
2022-10-08T03:23:24.169Z,100202.00
2022-10-08T03:25:50.817Z,100211.00
2022-10-08T03:28:17.517Z,100215.47
2022-10-08T03:30:44.239Z,100219.13
2022-10-08T03:33:11.073Z,100223.19
2022-10-08T03:35:37.758Z,100218.28
2022-10-08T03:38:04.468Z,100224.44
2022-10-08T03:40:31.063Z,100221.09
2022-10-08T03:42:57.826Z,100234.13
2022-10-08T03:45:24.466Z,100234.53
2022-10-08T03:47:52.456Z,100243.38
2022-10-08T03:50:21.222Z,100242.06
2022-10-08T03:52:48.635Z,100250.94
2022-10-08T03:55:15.582Z,100251.59
2022-10-08T03:57:42.421Z,100257.91
2022-10-08T04:00:10.116Z,100264.38
2022-10-08T04:02:36.984Z,100264.66
2022-10-08T04:05:03.881Z,100270.97
2022-10-08T04:07:30.570Z,100276.84
2022-10-08T04:09:57.223Z,100285.00
2022-10-08T04:12:23.889Z,100291.47
2022-10-08T04:14:50.535Z,100294.84
2022-10-08T04:17:17.260Z,100294.13
2022-10-08T04:19:43.913Z,100293.88
2022-10-08T04:22:10.624Z,100286.59
2022-10-08T04:24:37.261Z,100296.13
2022-10-08T04:27:04.089Z,100290.22
2022-10-08T04:29:30.781Z,100301.28
2022-10-08T04:31:58.497Z,100304.66
2022-10-08T04:34:25.179Z,100302.69
2022-10-08T04:36:51.947Z,100305.91
2022-10-08T04:39:18.591Z,100305.88
2022-10-08T04:41:45.289Z,100307.84
2022-10-08T04:44:11.964Z,100312.75
2022-10-08T04:46:38.739Z,100324.00
2022-10-08T04:49:05.410Z,100325.78
2022-10-08T04:51:32.081Z,100328.44
2022-10-08T04:53:58.789Z,100335.88
2022-10-08T04:56:28.169Z,100334.63
2022-10-08T04:58:55.619Z,100341.88
2022-10-08T05:01:23.582Z,100345.28
2022-10-08T05:03:53.135Z,100354.00
2022-10-08T05:06:22.914Z,100349.91
2022-10-08T05:08:50.051Z,100355.94
2022-10-08T05:11:18.087Z,100358.31
2022-10-08T05:13:50.345Z,100364.63
2022-10-08T05:16:19.908Z,100363.47
2022-10-08T05:18:47.725Z,100370.34
2022-10-08T05:21:16.461Z,100375.81
2022-10-08T05:23:43.884Z,100369.06
2022-10-08T05:26:28.770Z,100368.91
2022-10-08T05:29:08.146Z,100378.59
2022-10-08T05:31:37.250Z,100375.53
2022-10-08T05:34:04.413Z,100386.91
2022-10-08T05:36:33.314Z,100386.19
2022-10-08T05:39:01.381Z,100391.28
2022-10-08T05:41:30.390Z,100400.16
2022-10-08T05:43:58.841Z,100399.31
2022-10-08T05:46:28.591Z,100412.81
2022-10-08T05:48:57.571Z,100414.69
2022-10-08T05:51:24.294Z,100411.63
2022-10-08T05:53:52.607Z,100423.03
2022-10-08T05:56:22.714Z,100422.41
2022-10-08T05:58:50.343Z,100417.59
2022-10-08T06:01:28.072Z,100428.72
2022-10-08T06:04:05.685Z,100415.25
2022-10-08T06:06:36.599Z,100429.97
2022-10-08T06:09:03.967Z,100431.50
2022-10-08T06:11:34.072Z,100432.91
2022-10-08T06:14:02.053Z,100432.34
2022-10-08T06:16:30.108Z,100444.00
2022-10-08T06:18:57.007Z,100435.88
2022-10-08T06:21:26.604Z,100433.75
2022-10-08T06:23:56.295Z,100436.59
2022-10-08T06:26:27.357Z,100446.28
2022-10-08T06:28:56.482Z,100441.53
2022-10-08T06:31:23.206Z,100447.84
2022-10-08T06:33:50.493Z,100442.50
2022-10-08T06:36:20.379Z,100445.47
2022-10-08T06:38:51.168Z,100451.38
2022-10-08T06:41:18.652Z,100452.53
2022-10-08T06:43:45.848Z,100449.91
2022-10-08T06:46:12.876Z,100451.84
2022-10-08T06:48:51.417Z,100454.56
2022-10-08T06:51:19.084Z,100460.72
2022-10-08T06:53:52.391Z,100471.69
2022-10-08T06:56:19.087Z,100471.25
2022-10-08T06:58:47.532Z,100475.19
2022-10-08T07:01:17.952Z,100477.44
2022-10-08T07:03:58.239Z,100487.13
2022-10-08T07:06:25.805Z,100481.97
2022-10-08T07:08:54.911Z,100472.97
2022-10-08T07:11:22.669Z,100479.56
2022-10-08T07:13:49.348Z,100478.91
2022-10-08T07:16:21.642Z,100473.31
2022-10-08T07:18:50.620Z,100480.03
2022-10-08T07:21:19.641Z,100478.34
2022-10-08T07:23:46.561Z,100490.59
2022-10-08T07:26:16.206Z,100483.69
2022-10-08T07:28:48.758Z,100490.88
2022-10-08T07:31:19.019Z,100478.22
2022-10-08T07:33:45.868Z,100484.66
2022-10-08T07:36:14.899Z,100483.41
2022-10-08T07:38:41.831Z,100495.22
2022-10-08T07:41:10.065Z,100493.25
2022-10-08T07:43:37.689Z,100498.88
2022-10-08T07:46:05.903Z,100494.63
2022-10-08T07:48:34.275Z,100495.19
2022-10-08T07:51:15.676Z,100494.50
2022-10-08T07:53:43.631Z,100511.50
2022-10-08T07:56:12.792Z,100509.53
2022-10-08T07:58:40.417Z,100528.38
2022-10-08T08:01:10.470Z,100531.47
2022-10-08T08:03:37.595Z,100534.84
2022-10-08T08:06:06.044Z,100538.22
2022-10-08T08:08:34.963Z,100544.66
2022-10-08T08:11:03.263Z,100549.72
2022-10-08T08:13:36.797Z,100542.69
2022-10-08T08:16:18.183Z,100548.47
2022-10-08T08:18:48.246Z,100543.97
2022-10-08T08:21:27.066Z,100552.00
2022-10-08T08:23:56.464Z,100551.00
2022-10-08T08:26:29.213Z,100560.41
2022-10-08T08:28:58.791Z,100564.63
2022-10-08T08:31:29.243Z,100561.63
2022-10-08T08:33:59.853Z,100572.31
2022-10-08T08:36:29.613Z,100573.41
2022-10-08T08:38:57.027Z,100581.81
2022-10-08T08:41:44.851Z,100577.44
2022-10-08T08:44:18.693Z,100585.00
2022-10-08T08:46:52.886Z,100580.78
2022-10-08T08:49:44.218Z,100587.91
2022-10-08T08:52:17.876Z,100585.09
2022-10-08T08:54:49.606Z,100584.06
2022-10-08T08:57:34.673Z,100580.25
2022-10-08T09:00:19.840Z,100591.72
2022-10-08T09:02:57.906Z,100593.44
2022-10-08T09:05:26.734Z,100603.06
2022-10-08T09:08:02.686Z,100598.22
2022-10-08T09:10:42.887Z,100609.13
2022-10-08T09:13:22.186Z,100608.34
2022-10-08T09:15:48.918Z,100609.94
2022-10-08T09:18:16.733Z,100608.78
2022-10-08T09:20:44.444Z,100611.53
2022-10-08T09:23:22.778Z,100615.16
2022-10-08T09:25:55.890Z,100620.16
2022-10-08T09:28:50.445Z,100629.88
2022-10-08T09:31:32.576Z,100638.53
2022-10-08T09:34:15.650Z,100638.34
2022-10-08T09:36:52.531Z,100633.97
2022-10-08T09:39:20.754Z,100632.81
2022-10-08T09:42:04.569Z,100633.13
2022-10-08T09:44:44.876Z,100629.72
2022-10-08T09:47:16.465Z,100636.22
2022-10-08T09:49:45.309Z,100634.75
2022-10-08T09:52:17.607Z,100637.50
2022-10-08T09:54:49.006Z,100632.56
2022-10-08T09:57:21.403Z,100635.34
2022-10-08T09:59:54.909Z,100633.69
2022-10-08T10:02:35.384Z,100632.06
2022-10-08T10:05:05.589Z,100638.88
2022-10-08T10:07:42.075Z,100636.25
2022-10-08T10:10:17.937Z,100637.38
2022-10-08T10:12:50.284Z,100659.75
2022-10-08T10:15:30.100Z,100655.19
2022-10-08T10:18:02.248Z,100653.09
2022-10-08T10:20:38.152Z,100649.69
2022-10-08T10:23:30.798Z,100659.47
2022-10-08T10:26:07.705Z,100652.47
2022-10-08T10:28:52.971Z,100648.47
2022-10-08T10:31:25.904Z,100647.66
2022-10-08T10:34:04.341Z,100642.81
2022-10-08T10:36:43.813Z,100652.28
2022-10-08T10:39:29.246Z,100647.47
2022-10-08T10:41:59.860Z,100650.34
2022-10-08T10:44:35.426Z,100661.72
2022-10-08T10:47:04.036Z,100660.41
2022-10-08T10:49:40.540Z,100659.16
2022-10-08T10:52:49.218Z,100670.00
2022-10-08T10:55:21.894Z,100668.34
2022-10-08T10:58:22.498Z,100663.09
2022-10-08T11:01:07.619Z,100663.28
2022-10-08T11:04:02.435Z,100675.50
2022-10-08T11:06:48.388Z,100681.19
2022-10-08T11:09:40.976Z,100680.16
2022-10-08T11:12:30.925Z,100693.59
2022-10-08T11:15:35.111Z,100686.34
2022-10-08T11:18:25.407Z,100691.78
2022-10-08T11:21:05.360Z,100687.06
2022-10-08T11:23:54.719Z,100691.59
2022-10-08T11:26:36.681Z,100689.78
2022-10-08T11:29:15.756Z,100682.56
2022-10-08T11:31:45.369Z,100693.31
2022-10-08T11:34:36.116Z,100707.22
2022-10-08T11:37:21.705Z,100702.00
2022-10-08T11:39:54.378Z,100710.69
2022-10-08T11:42:30.212Z,100711.22
2022-10-08T11:45:33.745Z,100713.72
2022-10-08T11:48:21.088Z,100707.66
2022-10-08T11:50:47.937Z,100699.63
2022-10-08T11:53:21.017Z,100692.88
2022-10-08T11:55:57.287Z,100687.34
2022-10-08T11:58:30.959Z,100685.31
2022-10-08T12:01:08.983Z,100689.19
2022-10-08T12:03:42.983Z,100681.44
2022-10-08T12:06:34.650Z,100687.31
2022-10-08T12:09:02.859Z,100694.38
2022-10-08T12:11:32.488Z,100684.47
2022-10-08T12:14:11.474Z,100687.63
2022-10-08T12:16:47.429Z,100676.97
2022-10-08T12:19:32.939Z,100674.97
2022-10-08T12:22:03.486Z,100672.63
2022-10-08T12:24:39.340Z,100676.66
2022-10-08T12:27:18.432Z,100672.63
2022-10-08T12:29:58.850Z,100669.75
2022-10-08T12:32:28.249Z,100665.44
2022-10-08T12:34:56.185Z,100668.09
2022-10-08T12:37:49.720Z,100660.53
2022-10-08T12:40:31.479Z,100665.44
2022-10-08T12:43:12.055Z,100657.34
2022-10-08T12:45:54.771Z,100665.56
2022-10-08T12:48:49.316Z,100661.72
2022-10-08T12:51:45.532Z,100660.56
2022-10-08T12:54:31.574Z,100662.06
2022-10-08T12:56:59.779Z,100673.69
2022-10-08T12:59:32.049Z,100676.41
2022-10-08T13:01:58.947Z,100680.06
2022-10-08T13:04:29.958Z,100665.44
2022-10-08T13:06:56.828Z,100685.13
2022-10-08T13:09:27.764Z,100680.91
2022-10-08T13:12:02.118Z,100682.09
2022-10-08T13:14:36.080Z,100665.94
2022-10-08T13:17:03.935Z,100671.31
2022-10-08T13:19:38.970Z,100662.06
2022-10-08T13:22:26.121Z,100669.00
2022-10-08T13:24:52.985Z,100662.72
2022-10-08T13:27:27.225Z,100653.13
2022-10-08T13:29:55.543Z,100652.28
2022-10-08T13:32:25.887Z,100653.50
2022-10-08T13:34:58.818Z,100653.00
2022-10-08T13:37:36.277Z,100653.28
2022-10-08T13:40:12.498Z,100666.31
2022-10-08T13:42:49.001Z,100661.56
2022-10-08T13:45:27.773Z,100671.97
2022-10-08T13:47:55.090Z,100676.19
2022-10-08T13:50:23.049Z,100673.34
2022-10-08T13:52:54.695Z,100666.78
2022-10-08T13:55:26.779Z,100660.41
2022-10-08T13:57:54.638Z,100657.53
2022-10-08T14:00:22.649Z,100651.00
2022-10-08T14:02:51.746Z,100649.66
2022-10-08T14:05:19.726Z,100647.78
2022-10-08T14:07:50.903Z,100647.44
2022-10-08T14:10:19.027Z,100647.97
2022-10-08T14:12:46.016Z,100647.31
2022-10-08T14:15:14.128Z,100643.44
2022-10-08T14:17:40.907Z,100648.16
2022-10-08T14:20:09.313Z,100646.47
2022-10-08T14:22:39.225Z,100645.28
2022-10-08T14:25:17.943Z,100666.50
2022-10-08T14:27:45.269Z,100667.00
2022-10-08T14:30:13.839Z,100666.81
2022-10-08T14:32:40.892Z,100674.41
2022-10-08T14:35:08.156Z,100671.88
2022-10-08T14:37:35.479Z,100681.97
2022-10-08T14:40:03.971Z,100676.56
2022-10-08T14:42:30.756Z,100676.91
2022-10-08T14:44:57.464Z,100677.41
2022-10-08T14:47:24.270Z,100669.34
2022-10-08T14:49:51.009Z,100665.50
2022-10-08T14:52:17.870Z,100657.41
2022-10-08T14:54:44.558Z,100664.47
2022-10-08T14:57:11.259Z,100662.31
2022-10-08T14:59:40.231Z,100659.94
2022-10-08T15:02:10.468Z,100659.78
2022-10-08T15:04:37.350Z,100658.44
2022-10-08T15:07:04.406Z,100659.63
2022-10-08T15:09:31.550Z,100650.50
2022-10-08T15:11:58.472Z,100660.44
2022-10-08T15:14:58.688Z,100658.09
2022-10-08T15:17:25.502Z,100650.00
2022-10-08T15:19:53.002Z,100651.03
2022-10-08T15:22:19.663Z,100648.34
2022-10-08T15:24:46.313Z,100650.34
2022-10-08T15:27:15.248Z,100653.72
2022-10-08T15:29:45.235Z,100654.72
2022-10-08T15:32:12.200Z,100651.84
2022-10-08T15:34:39.042Z,100642.28
2022-10-08T15:37:08.008Z,100646.47
2022-10-08T15:39:36.035Z,100647.50
2022-10-08T15:42:02.991Z,100644.97
2022-10-08T15:44:31.225Z,100643.94
2022-10-08T15:47:06.688Z,100642.94
2022-10-08T15:49:37.726Z,100650.19
2022-10-08T15:52:09.398Z,100639.75
2022-10-08T15:54:40.516Z,100650.69
2022-10-08T15:57:09.562Z,100648.69
2022-10-08T15:59:36.665Z,100650.50
2022-10-08T16:02:04.441Z,100649.16
2022-10-08T16:04:31.276Z,100651.53
2022-10-08T16:06:58.489Z,100650.13
2022-10-08T16:09:25.499Z,100653.66
2022-10-08T16:11:52.209Z,100654.63
2022-10-08T16:14:24.662Z,100656.50
2022-10-08T16:16:51.991Z,100658.16
2022-10-08T16:19:21.478Z,100659.50
2022-10-08T16:21:50.109Z,100653.06
2022-10-08T16:24:17.512Z,100661.00
2022-10-08T16:26:45.225Z,100656.25
2022-10-08T16:29:13.751Z,100656.06
2022-10-08T16:31:42.247Z,100665.47
2022-10-08T16:34:14.348Z,100658.88
2022-10-08T16:36:41.687Z,100664.94
2022-10-08T16:39:09.026Z,100660.88
2022-10-08T16:41:37.441Z,100664.72
2022-10-08T16:44:12.775Z,100666.56
2022-10-08T16:46:43.124Z,100663.19
2022-10-08T16:49:22.696Z,100670.41
2022-10-08T16:51:52.900Z,100676.63
2022-10-08T16:54:19.747Z,100667.41
2022-10-08T16:56:46.901Z,100674.63
2022-10-08T16:59:19.410Z,100674.13
2022-10-08T17:01:49.588Z,100671.22
2022-10-08T17:04:17.503Z,100670.53
2022-10-08T17:06:44.334Z,100666.31
2022-10-08T17:09:11.679Z,100670.66
2022-10-08T17:11:39.275Z,100672.13
2022-10-08T17:14:07.711Z,100669.72
2022-10-08T17:16:35.967Z,100668.00
2022-10-08T17:19:04.374Z,100678.69
2022-10-08T17:21:34.748Z,100673.63
2022-10-08T17:24:02.842Z,100683.50
2022-10-08T17:26:30.926Z,100679.91
2022-10-08T17:29:01.647Z,100678.84
2022-10-08T17:31:31.907Z,100691.50
2022-10-08T17:34:02.801Z,100681.06
2022-10-08T17:36:35.688Z,100690.13
2022-10-08T17:39:05.431Z,100699.47
2022-10-08T17:41:37.021Z,100700.09
2022-10-08T17:44:06.934Z,100701.41
2022-10-08T17:46:36.437Z,100697.88
2022-10-08T17:49:03.646Z,100699.03
2022-10-08T17:51:31.323Z,100697.50
2022-10-08T17:54:04.212Z,100704.88
2022-10-08T17:56:31.812Z,100705.00
2022-10-08T17:58:58.958Z,100695.88
2022-10-08T18:01:28.354Z,100705.94
2022-10-08T18:04:03.589Z,100703.31
2022-10-08T18:06:31.748Z,100696.00
2022-10-08T18:09:01.635Z,100703.59
2022-10-08T18:11:30.349Z,100705.31
2022-10-08T18:13:57.117Z,100713.81
2022-10-08T18:16:25.300Z,100719.31
2022-10-08T18:18:52.289Z,100714.03
2022-10-08T18:21:20.176Z,100723.88
2022-10-08T18:23:48.960Z,100718.00
2022-10-08T18:26:24.252Z,100724.19
2022-10-08T18:28:55.807Z,100725.03
2022-10-08T18:31:28.699Z,100714.06
2022-10-08T18:34:02.629Z,100714.75
2022-10-08T18:36:31.942Z,100715.47
2022-10-08T18:38:59.807Z,100709.00
2022-10-08T18:41:29.718Z,100712.41
2022-10-08T18:43:59.402Z,100716.38
2022-10-08T18:46:27.749Z,100713.44
2022-10-08T18:48:55.156Z,100721.72
2022-10-08T18:51:24.719Z,100721.16
2022-10-08T18:53:52.907Z,100719.25
2022-10-08T18:56:22.033Z,100716.16
2022-10-08T18:58:50.648Z,100719.94
2022-10-08T19:01:28.307Z,100726.13
2022-10-08T19:03:58.011Z,100732.34
2022-10-08T19:06:27.822Z,100734.47
2022-10-08T19:08:55.933Z,100732.47
2022-10-08T19:11:30.187Z,100730.78
2022-10-08T19:13:56.859Z,100728.97
2022-10-08T19:16:23.717Z,100730.38
2022-10-08T19:18:53.477Z,100727.31
2022-10-08T19:21:20.767Z,100735.47
2022-10-08T19:23:47.731Z,100734.19
2022-10-08T19:26:15.187Z,100734.78
2022-10-08T19:28:50.104Z,100729.72
2022-10-08T19:31:24.239Z,100731.69
2022-10-08T19:33:56.101Z,100742.53
2022-10-08T19:36:24.900Z,100742.97
2022-10-08T19:38:53.193Z,100732.00
2022-10-08T19:41:20.664Z,100732.41
2022-10-08T19:43:47.825Z,100736.78
2022-10-08T19:46:14.738Z,100730.03
2022-10-08T19:48:41.542Z,100736.63
2022-10-08T19:51:10.954Z,100723.84
2022-10-08T19:53:38.617Z,100735.38
2022-10-08T19:56:10.021Z,100726.22
2022-10-08T19:58:37.403Z,100734.56
2022-10-08T20:01:09.778Z,100722.72
2022-10-08T20:03:37.136Z,100727.34
2022-10-08T20:06:09.494Z,100720.47
2022-10-08T20:08:36.947Z,100721.59
2022-10-08T20:11:08.794Z,100720.75
2022-10-08T20:13:36.210Z,100723.00
2022-10-08T20:16:12.984Z,100725.53
2022-10-08T20:18:39.866Z,100725.53
2022-10-08T20:21:09.690Z,100721.03
2022-10-08T20:23:37.899Z,100724.13
2022-10-08T20:26:26.106Z,100722.16
2022-10-08T20:29:04.245Z,100723.13
2022-10-08T20:31:33.206Z,100720.03
2022-10-08T20:34:08.493Z,100725.13
2022-10-08T20:36:35.302Z,100716.41
2022-10-08T20:39:02.087Z,100710.19
2022-10-08T20:41:31.100Z,100713.84
2022-10-08T20:44:03.210Z,100703.84
2022-10-08T20:46:31.272Z,100706.09
2022-10-08T20:48:58.525Z,100711.19
2022-10-08T20:51:27.071Z,100698.41
2022-10-08T20:53:53.660Z,100699.06
2022-10-08T20:56:21.966Z,100695.56
2022-10-08T20:58:49.630Z,100706.25
2022-10-08T21:01:19.811Z,100704.72
2022-10-08T21:03:47.484Z,100709.47
2022-10-08T21:06:20.161Z,100716.78
2022-10-08T21:08:48.957Z,100721.59
2022-10-08T21:11:21.436Z,100714.00
2022-10-08T21:13:48.473Z,100720.31
2022-10-08T21:16:21.634Z,100716.22
2022-10-08T21:18:49.604Z,100721.16
2022-10-08T21:21:16.794Z,100723.38
2022-10-08T21:23:43.885Z,100718.03
2022-10-08T21:26:19.294Z,100717.31
2022-10-08T21:28:47.987Z,100721.00
2022-10-08T21:31:15.961Z,100713.25
2022-10-08T21:33:45.246Z,100717.03
2022-10-08T21:36:14.972Z,100713.53
2022-10-08T21:38:42.595Z,100703.13
2022-10-08T21:41:12.506Z,100701.31
2022-10-08T21:43:50.899Z,100688.66
2022-10-08T21:46:23.369Z,100693.41
2022-10-08T21:48:58.729Z,100694.00
2022-10-08T21:51:26.641Z,100692.44
2022-10-08T21:53:56.070Z,100687.22
2022-10-08T21:56:25.806Z,100689.06
2022-10-08T21:58:58.264Z,100688.94
2022-10-08T22:01:29.752Z,100687.53
2022-10-08T22:04:11.005Z,100689.34
2022-10-08T22:06:41.251Z,100677.25
2022-10-08T22:09:12.246Z,100679.94
2022-10-08T22:11:39.645Z,100670.50
2022-10-08T22:14:07.040Z,100665.56
2022-10-08T22:16:34.187Z,100653.19
2022-10-08T22:19:01.268Z,100661.66
2022-10-08T22:24:17.861Z,100650.38
2022-10-08T22:26:50.523Z,100639.28
2022-10-08T22:29:17.362Z,100656.28
2022-10-08T22:31:44.404Z,100663.88
2022-10-08T22:34:11.271Z,100656.13
2022-10-08T22:36:44.545Z,100662.16
2022-10-08T22:39:11.857Z,100656.41
2022-10-08T22:41:38.679Z,100657.00
2022-10-08T22:44:05.870Z,100664.88
2022-10-08T22:46:41.171Z,100666.41
2022-10-08T22:49:10.436Z,100660.66
2022-10-08T22:51:38.982Z,100667.81
2022-10-08T22:54:05.785Z,100666.13
2022-10-08T22:56:32.822Z,100676.22
2022-10-08T22:59:00.525Z,100672.44
2022-10-08T23:01:29.422Z,100669.19
2022-10-08T23:03:56.653Z,100658.78
2022-10-08T23:06:25.988Z,100656.13
2022-10-08T23:09:01.598Z,100642.78
2022-10-08T23:11:29.538Z,100648.94
2022-10-08T23:13:57.964Z,100652.59
2022-10-08T23:16:26.430Z,100631.22
2022-10-08T23:18:56.619Z,100628.13
2022-10-08T23:21:24.016Z,100635.31
2022-10-08T23:23:54.437Z,100639.09
2022-10-08T23:26:24.674Z,100626.47
2022-10-08T23:28:53.278Z,100617.75
2022-10-08T23:31:22.887Z,100606.19
2022-10-08T23:33:51.667Z,100605.81
2022-10-08T23:36:21.571Z,100603.13
2022-10-08T23:38:48.681Z,100585.97
2022-10-08T23:41:15.441Z,100588.75
2022-10-08T23:43:44.183Z,100579.78
2022-10-08T23:46:12.534Z,100582.59
2022-10-08T23:48:39.748Z,100570.06
2022-10-08T23:51:07.735Z,100572.03
2022-10-08T23:53:34.993Z,100566.69
2022-10-08T23:56:02.416Z,100576.28
2022-10-08T23:58:29.185Z,100573.63
